createdAt,value
2019-04-16T00:01:15.882Z,17.07
2019-04-16T00:03:53.638Z,12.37
2019-04-16T00:06:37.239Z,14.50
2019-04-16T00:09:15.041Z,11.33
2019-04-16T00:11:47.854Z,14.87
2019-04-16T00:14:23.163Z,17.30
2019-04-16T00:16:53.066Z,15.30
2019-04-16T00:19:23.785Z,15.40
2019-04-16T00:21:59.269Z,15.37
2019-04-16T00:24:31.702Z,14.53
2019-04-16T00:27:01.501Z,13.90
2019-04-16T00:29:33.655Z,15.37
2019-04-16T00:32:09.127Z,17.10
2019-04-16T00:34:38.538Z,15.33
2019-04-16T00:37:08.742Z,16.53
2019-04-16T00:39:41.781Z,15.87
2019-04-16T00:42:13.019Z,16.23
2019-04-16T00:44:46.037Z,13.67
2019-04-16T00:47:17.814Z,14.50
2019-04-16T00:49:50.025Z,15.57
2019-04-16T00:52:21.398Z,19.77
2019-04-16T00:54:51.602Z,13.77
2019-04-16T00:57:22.443Z,15.03
2019-04-16T00:59:56.339Z,16.67
2019-04-16T01:02:25.435Z,15.87
2019-04-16T01:04:57.966Z,17.83
2019-04-16T01:07:29.097Z,17.83
2019-04-16T01:10:00.291Z,15.33
2019-04-16T01:12:31.131Z,15.00
2019-04-16T01:15:03.441Z,10.57
2019-04-16T01:17:36.093Z,15.53
2019-04-16T01:20:11.923Z,14.90
2019-04-16T01:22:40.701Z,11.57
2019-04-16T01:25:11.526Z,17.27
2019-04-16T01:27:44.241Z,15.33
2019-04-16T01:30:15.670Z,16.53
2019-04-16T01:32:58.897Z,12.10
2019-04-16T01:35:31.206Z,16.17
2019-04-16T01:38:22.070Z,16.83
2019-04-16T01:41:04.039Z,16.53
2019-04-16T01:43:35.855Z,16.80
2019-04-16T01:46:07.194Z,15.93
2019-04-16T01:48:38.986Z,16.20
2019-04-16T01:51:12.629Z,15.37
2019-04-16T01:53:43.253Z,15.77
2019-04-16T01:56:13.408Z,17.83
2019-04-16T01:58:44.545Z,16.30
2019-04-16T02:01:14.862Z,17.80
2019-04-16T02:03:48.660Z,13.00
2019-04-16T02:06:19.558Z,15.70
2019-04-16T02:08:50.863Z,16.30
2019-04-16T02:11:21.697Z,16.20
2019-04-16T02:13:53.030Z,15.87
2019-04-16T02:16:26.016Z,16.20
2019-04-16T02:19:00.801Z,16.63
2019-04-16T02:21:27.523Z,14.93
2019-04-16T02:23:58.514Z,13.57
2019-04-16T02:26:28.426Z,14.97
2019-04-16T02:28:58.910Z,13.03
2019-04-16T02:31:31.846Z,15.87
2019-04-16T02:34:02.673Z,18.87
2019-04-16T02:36:32.749Z,16.93
2019-04-16T02:39:03.803Z,16.53
2019-04-16T02:41:35.013Z,15.60
2019-04-16T02:44:05.139Z,17.43
2019-04-16T02:46:35.334Z,12.27
2019-04-16T02:49:05.418Z,16.23
2019-04-16T02:51:41.253Z,15.47
2019-04-16T02:54:13.838Z,16.70
2019-04-16T02:56:52.161Z,15.07
2019-04-16T02:59:46.004Z,17.57
2019-04-16T03:02:31.005Z,17.90
2019-04-16T03:05:05.189Z,18.60
2019-04-16T03:07:35.911Z,15.03
2019-04-16T03:10:12.036Z,19.40
2019-04-16T03:12:39.725Z,13.73
2019-04-16T03:15:11.622Z,16.07
2019-04-16T03:17:44.432Z,15.50
2019-04-16T03:20:17.554Z,17.03
2019-04-16T03:22:48.393Z,18.80
2019-04-16T03:25:17.638Z,15.40
2019-04-16T03:27:51.470Z,13.17
2019-04-16T03:30:23.261Z,17.47
2019-04-16T03:32:53.529Z,17.67
2019-04-16T03:35:26.614Z,17.27
2019-04-16T03:37:55.649Z,16.83
2019-04-16T03:40:26.054Z,19.37
2019-04-16T03:42:59.391Z,21.10
2019-04-16T03:45:29.324Z,20.00
2019-04-16T03:47:59.941Z,19.70
2019-04-16T03:50:32.078Z,17.67
2019-04-16T03:53:03.989Z,17.17
2019-04-16T03:55:36.006Z,16.93
2019-04-16T03:58:07.343Z,12.90
2019-04-16T04:00:43.761Z,15.53
2019-04-16T04:03:10.514Z,21.27
2019-04-16T04:05:41.644Z,16.93
2019-04-16T04:08:16.071Z,18.67
2019-04-16T04:10:43.509Z,16.33
2019-04-16T04:13:17.254Z,16.70
2019-04-16T04:15:45.558Z,14.03
2019-04-16T04:18:16.728Z,15.87
2019-04-16T04:20:50.596Z,16.93
2019-04-16T04:23:20.417Z,14.73
2019-04-16T04:25:50.265Z,18.03
2019-04-16T04:28:22.653Z,14.30
2019-04-16T04:30:53.437Z,17.83
2019-04-16T04:33:42.796Z,15.73
2019-04-16T04:36:13.363Z,15.53
2019-04-16T04:38:43.560Z,19.73
2019-04-16T04:41:16.638Z,15.50
2019-04-16T04:43:46.761Z,18.70
2019-04-16T04:46:16.606Z,14.53
2019-04-16T04:48:46.342Z,21.60
2019-04-16T04:51:17.054Z,12.07
2019-04-16T04:53:50.333Z,17.23
2019-04-16T04:56:20.456Z,14.43
2019-04-16T04:58:50.669Z,17.67
2019-04-16T05:01:21.188Z,16.97
2019-04-16T05:04:09.869Z,15.30
2019-04-16T05:06:47.577Z,15.03
2019-04-16T05:09:18.813Z,16.77
2019-04-16T05:11:51.759Z,21.10
2019-04-16T05:14:24.961Z,19.23
2019-04-16T05:16:54.729Z,15.77
2019-04-16T05:19:25.465Z,19.60
2019-04-16T05:21:55.758Z,13.97
2019-04-16T05:24:28.838Z,18.17
2019-04-16T05:26:58.683Z,16.73
2019-04-16T05:29:29.486Z,16.83
2019-04-16T05:31:59.573Z,16.03
2019-04-16T05:34:34.612Z,17.53
2019-04-16T05:37:04.044Z,21.93
2019-04-16T05:39:34.236Z,18.23
2019-04-16T05:42:05.783Z,21.33
2019-04-16T05:44:36.621Z,19.30
2019-04-16T05:47:07.378Z,21.50
2019-04-16T05:49:38.500Z,26.93
2019-04-16T05:52:09.333Z,20.23
2019-04-16T05:54:50.762Z,17.87
2019-04-16T05:57:25.635Z,16.63
2019-04-16T05:59:54.537Z,20.60
2019-04-16T06:02:34.997Z,13.83
2019-04-16T06:05:05.369Z,18.10
2019-04-16T06:07:37.760Z,19.33
2019-04-16T06:10:07.849Z,21.20
2019-04-16T06:12:42.412Z,20.33
2019-04-16T06:15:35.918Z,19.53
2019-04-16T06:18:18.311Z,23.40
2019-04-16T06:21:06.715Z,19.83
2019-04-16T06:23:39.396Z,22.60
2019-04-16T06:26:14.675Z,17.03
2019-04-16T06:28:55.036Z,21.23
2019-04-16T06:31:25.117Z,19.03
2019-04-16T06:33:57.860Z,17.03
2019-04-16T06:36:34.075Z,17.83
2019-04-16T06:39:08.175Z,19.77
2019-04-16T06:41:47.674Z,23.60
2019-04-16T06:44:20.129Z,26.60
2019-04-16T06:46:55.501Z,17.10
2019-04-16T06:49:39.573Z,16.37
2019-04-16T06:52:18.300Z,27.80
2019-04-16T06:54:53.504Z,21.33
2019-04-16T06:57:27.034Z,15.23
2019-04-16T07:00:14.171Z,20.80
2019-04-16T07:03:02.334Z,19.97
2019-04-16T07:05:32.991Z,21.33
2019-04-16T07:08:17.774Z,19.60
2019-04-16T07:10:59.450Z,22.70
2019-04-16T07:13:29.757Z,19.50
2019-04-16T07:16:02.609Z,24.57
2019-04-16T07:18:32.586Z,20.53
2019-04-16T07:21:04.309Z,17.43
2019-04-16T07:23:36.123Z,20.90
2019-04-16T07:26:13.525Z,15.03
2019-04-16T07:28:47.852Z,18.80
2019-04-16T07:31:32.884Z,23.20
2019-04-16T07:33:53.985Z,18.13
2019-04-16T07:36:31.506Z,19.33
2019-04-16T07:39:06.210Z,15.13
2019-04-16T07:41:50.909Z,22.50
2019-04-16T07:44:39.218Z,14.40
2019-04-16T07:47:20.054Z,18.07
2019-04-16T07:49:55.930Z,14.10
2019-04-16T07:52:38.993Z,17.03
2019-04-16T07:55:16.408Z,19.63
2019-04-16T07:57:46.405Z,14.20
2019-04-16T08:00:17.431Z,18.67
2019-04-16T08:02:50.671Z,18.97
2019-04-16T08:05:21.991Z,17.87
2019-04-16T08:07:52.864Z,16.63
2019-04-16T08:10:24.893Z,22.37
2019-04-16T08:13:00.480Z,19.70
2019-04-16T08:15:29.281Z,21.63
2019-04-16T08:17:59.054Z,15.10
2019-04-16T08:20:29.693Z,19.07
2019-04-16T08:23:01.425Z,13.80
2019-04-16T08:25:34.044Z,21.83
2019-04-16T08:28:07.416Z,16.20
2019-04-16T08:30:39.434Z,19.27
2019-04-16T08:33:10.654Z,20.30
2019-04-16T08:35:40.655Z,17.70
2019-04-16T08:38:11.721Z,18.57
2019-04-16T08:40:45.942Z,16.30
2019-04-16T08:43:15.427Z,15.10
2019-04-16T08:45:45.323Z,22.20
2019-04-16T08:48:18.387Z,19.53
2019-04-16T08:50:49.494Z,13.43
2019-04-16T08:53:19.474Z,18.20
2019-04-16T08:55:50.185Z,22.63
2019-04-16T08:58:20.093Z,21.17
2019-04-16T09:00:51.334Z,17.40
2019-04-16T09:03:21.386Z,18.23
2019-04-16T09:05:51.585Z,24.23
2019-04-16T09:08:25.749Z,21.03
2019-04-16T09:10:55.381Z,20.80
2019-04-16T09:13:28.187Z,21.70
2019-04-16T09:15:59.093Z,24.67
2019-04-16T09:18:40.045Z,21.37
2019-04-16T09:21:11.584Z,15.27
2019-04-16T09:23:43.238Z,20.00
2019-04-16T09:26:18.623Z,17.10
2019-04-16T09:28:51.065Z,20.90
2019-04-16T09:31:34.958Z,21.83
2019-04-16T09:34:16.113Z,20.80
2019-04-16T09:37:05.739Z,21.03
2019-04-16T09:39:50.200Z,20.30
2019-04-16T09:42:20.964Z,21.83
2019-04-16T09:44:51.117Z,19.33
2019-04-16T09:47:21.617Z,24.57
2019-04-16T09:49:52.648Z,20.90
2019-04-16T09:52:23.449Z,17.57
2019-04-16T09:54:54.310Z,20.07
2019-04-16T09:57:24.770Z,23.17
2019-04-16T09:59:58.875Z,20.27
2019-04-16T10:02:31.723Z,19.20
2019-04-16T10:05:02.525Z,22.70
2019-04-16T10:07:32.315Z,19.57
2019-04-16T10:10:03.076Z,20.13
2019-04-16T10:12:34.588Z,20.30
2019-04-16T10:15:07.377Z,21.33
2019-04-16T10:17:40.069Z,20.80
2019-04-16T10:20:10.509Z,22.40
2019-04-16T10:22:41.530Z,20.13
2019-04-16T10:25:15.092Z,24.50
2019-04-16T10:27:53.333Z,17.63
2019-04-16T10:30:25.824Z,18.13
2019-04-16T10:32:58.144Z,22.33
2019-04-16T10:35:29.538Z,17.73
2019-04-16T10:38:01.991Z,19.83
2019-04-16T10:40:34.447Z,19.90
2019-04-16T10:43:22.390Z,19.50
2019-04-16T10:45:58.122Z,23.17
2019-04-16T10:48:30.676Z,20.10
2019-04-16T10:51:08.657Z,21.57
2019-04-16T10:53:43.711Z,20.00
2019-04-16T10:56:34.357Z,18.37
2019-04-16T10:59:08.282Z,17.07
2019-04-16T11:01:39.194Z,20.67
2019-04-16T11:04:27.446Z,18.73
2019-04-16T11:07:09.269Z,21.13
2019-04-16T11:09:40.605Z,21.10
2019-04-16T11:12:11.047Z,23.53
2019-04-16T11:14:41.918Z,28.13
2019-04-16T11:17:13.012Z,19.47
2019-04-16T11:19:45.868Z,21.60
2019-04-16T11:22:16.705Z,19.27
2019-04-16T11:24:46.486Z,23.27
2019-04-16T11:27:18.989Z,22.87
2019-04-16T11:29:50.057Z,18.17
2019-04-16T11:32:22.715Z,17.53
2019-04-16T11:34:53.016Z,17.17
2019-04-16T11:37:23.324Z,14.80
2019-04-16T11:39:54.258Z,17.13
2019-04-16T11:42:24.217Z,16.63
2019-04-16T11:44:55.230Z,15.50
2019-04-16T11:47:28.014Z,14.47
2019-04-16T11:49:57.116Z,15.53
2019-04-16T11:52:27.856Z,13.63
2019-04-16T11:55:00.676Z,17.80
2019-04-16T11:57:33.248Z,14.87
2019-04-16T12:00:08.435Z,15.97
2019-04-16T12:02:40.744Z,16.47
2019-04-16T12:05:15.382Z,11.80
2019-04-16T12:08:01.588Z,12.43
2019-04-16T12:10:44.225Z,12.10
2019-04-16T12:13:22.707Z,16.33
2019-04-16T12:16:01.042Z,16.07
2019-04-16T12:18:33.029Z,21.23
2019-04-16T12:21:17.633Z,15.43
2019-04-16T12:23:55.779Z,13.43
2019-04-16T12:26:39.118Z,12.20
2019-04-16T12:29:16.377Z,16.53
2019-04-16T12:32:05.207Z,11.63
2019-04-16T12:34:51.091Z,14.20
2019-04-16T12:37:22.889Z,13.67
2019-04-16T12:39:55.711Z,14.47
2019-04-16T12:42:34.590Z,11.63
2019-04-16T12:45:11.493Z,13.93
2019-04-16T12:47:49.592Z,12.97
2019-04-16T12:50:38.320Z,11.03
2019-04-16T12:53:12.558Z,11.43
2019-04-16T12:55:50.493Z,10.23
2019-04-16T12:58:38.233Z,11.73
2019-04-16T13:01:24.527Z,11.87
2019-04-16T13:03:57.223Z,12.33
2019-04-16T13:06:32.520Z,11.30
2019-04-16T13:09:13.165Z,13.73
2019-04-16T13:12:08.469Z,9.87
2019-04-16T13:14:43.463Z,8.20
2019-04-16T13:17:23.667Z,10.60
2019-04-16T13:20:07.008Z,9.77
2019-04-16T13:22:53.692Z,13.67
2019-04-16T13:25:29.317Z,10.93
2019-04-16T13:28:00.164Z,10.93
2019-04-16T13:30:30.264Z,10.63
2019-04-16T13:33:01.407Z,10.33
2019-04-16T13:35:34.246Z,9.20
2019-04-16T13:38:09.484Z,9.40
2019-04-16T13:40:41.442Z,11.20
2019-04-16T13:43:14.705Z,10.47
2019-04-16T13:45:45.457Z,10.50
2019-04-16T13:48:27.604Z,7.60
2019-04-16T13:51:00.841Z,9.27
2019-04-16T13:53:38.158Z,8.57
2019-04-16T13:56:21.417Z,7.97
2019-04-16T13:59:08.938Z,9.40
2019-04-16T14:01:46.054Z,10.63
2019-04-16T14:04:16.641Z,10.47
2019-04-16T14:06:47.778Z,9.67
2019-04-16T14:09:18.641Z,9.70
2019-04-16T14:11:51.304Z,11.33
2019-04-16T14:14:22.632Z,10.50
2019-04-16T14:16:52.578Z,10.87
2019-04-16T14:19:22.370Z,10.77
2019-04-16T14:21:52.213Z,9.40
2019-04-16T14:24:21.994Z,12.63
2019-04-16T14:26:52.065Z,13.47
2019-04-16T14:29:24.924Z,13.40
2019-04-16T14:31:56.015Z,10.20
2019-04-16T14:34:31.565Z,13.93
2019-04-16T14:37:01.866Z,10.63
2019-04-16T14:39:44.496Z,11.80
2019-04-16T14:42:19.149Z,10.97
2019-04-16T14:44:51.367Z,14.00
2019-04-16T14:47:22.881Z,12.27
2019-04-16T14:49:53.649Z,13.63
2019-04-16T14:52:23.401Z,13.23
2019-04-16T14:54:57.864Z,12.83
2019-04-16T14:57:28.630Z,15.90
2019-04-16T15:00:09.184Z,14.17
2019-04-16T15:02:49.705Z,12.33
2019-04-16T15:05:24.466Z,14.47
2019-04-16T15:08:13.588Z,14.60
2019-04-16T15:11:04.368Z,14.20
2019-04-16T15:13:36.106Z,16.63
2019-04-16T15:16:13.823Z,21.50
2019-04-16T15:18:46.452Z,20.80
2019-04-16T15:21:24.868Z,17.07
2019-04-16T15:24:12.634Z,15.63
2019-04-16T15:26:52.160Z,24.50
2019-04-16T15:29:25.361Z,28.70
2019-04-16T15:32:04.100Z,14.60
2019-04-16T15:34:41.948Z,27.33
2019-04-16T15:37:10.852Z,17.33
2019-04-16T15:39:42.601Z,17.40
2019-04-16T15:42:20.860Z,14.90
2019-04-16T15:44:56.117Z,14.93
2019-04-16T15:47:32.060Z,19.13
2019-04-16T15:50:02.750Z,16.30
2019-04-16T15:52:34.306Z,15.40
2019-04-16T15:55:24.404Z,13.03
2019-04-16T15:58:14.697Z,10.63
2019-04-16T16:00:52.200Z,11.27
2019-04-16T16:03:30.870Z,10.03
2019-04-16T16:06:12.517Z,12.07
2019-04-16T16:08:51.799Z,12.03
2019-04-16T16:11:44.434Z,9.90
2019-04-16T16:14:17.053Z,8.73
2019-04-16T16:16:50.797Z,11.10
2019-04-16T16:19:21.426Z,10.60
2019-04-16T16:21:53.093Z,10.90
2019-04-16T16:24:24.680Z,13.30
2019-04-16T16:26:54.826Z,10.63
2019-04-16T16:29:25.026Z,12.10
2019-04-16T16:31:56.157Z,9.27
2019-04-16T16:34:27.855Z,10.80
2019-04-16T16:36:58.685Z,11.60
2019-04-16T16:39:31.483Z,12.23
2019-04-16T16:42:02.816Z,10.77
2019-04-16T16:44:32.714Z,11.03
2019-04-16T16:47:04.159Z,12.33
2019-04-16T16:49:34.909Z,10.43
2019-04-16T16:52:10.106Z,10.10
2019-04-16T16:54:42.134Z,9.20
2019-04-16T16:57:19.173Z,9.63
2019-04-16T17:00:01.990Z,9.20
2019-04-16T17:02:40.645Z,10.63
2019-04-16T17:05:12.513Z,10.00
2019-04-16T17:07:43.716Z,11.23
2019-04-16T17:10:15.282Z,9.87
2019-04-16T17:12:47.391Z,10.47
2019-04-16T17:15:19.186Z,13.73
2019-04-16T17:17:50.798Z,11.93
2019-04-16T17:20:21.438Z,10.73
2019-04-16T17:22:51.497Z,12.97
2019-04-16T17:25:35.544Z,10.57
2019-04-16T17:27:56.366Z,7.20
2019-04-16T17:30:27.433Z,8.53
2019-04-16T17:32:59.225Z,9.27
2019-04-16T17:35:30.299Z,7.93
2019-04-16T17:38:03.169Z,10.07
2019-04-16T17:40:51.095Z,10.60
2019-04-16T17:43:22.093Z,8.70
2019-04-16T17:45:57.141Z,7.27
2019-04-16T17:48:31.621Z,7.77
2019-04-16T17:51:06.413Z,5.87
2019-04-16T17:53:39.003Z,6.53
2019-04-16T17:56:27.045Z,9.70
2019-04-16T17:59:05.724Z,7.43
2019-04-16T18:01:53.146Z,6.83
2019-04-16T18:04:25.513Z,8.33
2019-04-16T18:07:13.697Z,8.37
2019-04-16T18:09:48.262Z,5.20
2019-04-16T18:12:38.670Z,5.57
2019-04-16T18:15:19.392Z,6.10
2019-04-16T18:18:06.712Z,4.77
2019-04-16T18:20:56.709Z,8.33
2019-04-16T18:23:33.906Z,5.63
2019-04-16T18:26:22.747Z,4.00
2019-04-16T18:29:11.945Z,4.80
2019-04-16T18:31:46.201Z,4.43
2019-04-16T18:34:40.259Z,4.90
2019-04-16T18:37:22.533Z,5.97
2019-04-16T18:40:00.873Z,5.30
2019-04-16T18:42:50.893Z,3.83
2019-04-16T18:45:24.870Z,3.80
2019-04-16T18:48:04.964Z,4.40
2019-04-16T18:50:31.941Z,6.57
2019-04-16T18:53:02.700Z,3.37
2019-04-16T18:55:33.369Z,4.30
2019-04-16T18:58:04.102Z,4.47
2019-04-16T19:00:36.979Z,3.87
2019-04-16T19:03:07.513Z,3.47
2019-04-16T19:05:39.210Z,3.90
2019-04-16T19:08:09.166Z,4.70
2019-04-16T19:10:40.566Z,5.17
2019-04-16T19:13:11.712Z,4.47
2019-04-16T19:15:44.267Z,5.97
2019-04-16T19:18:19.635Z,3.47
2019-04-16T19:20:51.458Z,5.53
2019-04-16T19:23:21.550Z,3.93
2019-04-16T19:25:55.344Z,6.17
2019-04-16T19:28:25.289Z,5.43
2019-04-16T19:30:56.550Z,4.83
2019-04-16T19:33:26.485Z,3.77
2019-04-16T19:35:57.549Z,4.53
2019-04-16T19:38:27.397Z,4.57
2019-04-16T19:40:58.417Z,5.47
2019-04-16T19:43:28.622Z,4.77
2019-04-16T19:46:02.422Z,23.53
2019-04-16T19:48:35.895Z,5.40
2019-04-16T19:51:07.658Z,3.00
2019-04-16T19:53:41.541Z,3.63
2019-04-16T19:56:11.386Z,3.27
2019-04-16T19:58:44.310Z,3.13
2019-04-16T20:01:13.504Z,3.03
2019-04-16T20:03:45.376Z,3.47
2019-04-16T20:06:16.577Z,3.33
2019-04-16T20:08:48.177Z,4.43
2019-04-16T20:11:21.413Z,5.80
2019-04-16T20:13:50.293Z,7.60
2019-04-16T20:16:20.213Z,2.37
2019-04-16T20:18:51.571Z,4.07
2019-04-16T20:21:22.781Z,3.37
2019-04-16T20:23:54.986Z,3.83
2019-04-16T20:26:29.332Z,3.63
2019-04-16T20:29:00.392Z,5.90
2019-04-16T20:31:31.504Z,3.43
2019-04-16T20:34:01.713Z,4.70
2019-04-16T20:36:31.482Z,4.57
2019-04-16T20:39:02.605Z,4.17
2019-04-16T20:41:33.373Z,3.47
2019-04-16T20:44:08.447Z,3.40
2019-04-16T20:46:37.110Z,18.43
2019-04-16T20:49:10.516Z,9.00
2019-04-16T20:51:39.781Z,26.17
2019-04-16T20:54:13.777Z,7.70
2019-04-16T20:56:44.953Z,6.10
2019-04-16T20:59:17.485Z,3.37
2019-04-16T21:01:47.761Z,5.13
2019-04-16T21:04:18.589Z,5.30
2019-04-16T21:06:49.605Z,5.07
2019-04-16T21:09:19.918Z,4.30
2019-04-16T21:11:52.684Z,4.63
2019-04-16T21:14:24.406Z,3.33
2019-04-16T21:16:55.834Z,5.17
2019-04-16T21:19:28.533Z,4.40
2019-04-16T21:22:01.367Z,8.00
2019-04-16T21:24:39.133Z,3.70
2019-04-16T21:27:09.791Z,3.97
2019-04-16T21:29:38.960Z,4.10
2019-04-16T21:32:16.687Z,3.20
2019-04-16T21:34:44.974Z,4.13
2019-04-16T21:37:26.362Z,4.77
2019-04-16T21:40:00.645Z,4.70
2019-04-16T21:42:34.582Z,2.83
2019-04-16T21:45:03.517Z,4.20
2019-04-16T21:47:36.237Z,4.33
2019-04-16T21:50:08.938Z,3.90
2019-04-16T21:52:38.718Z,3.70
2019-04-16T21:55:09.941Z,3.67
2019-04-16T21:57:42.879Z,4.13
2019-04-16T22:00:14.950Z,3.73
2019-04-16T22:02:45.871Z,2.63
2019-04-16T22:05:17.860Z,4.33
2019-04-16T22:07:47.937Z,3.33
2019-04-16T22:10:18.673Z,3.50
2019-04-16T22:12:48.825Z,4.30
2019-04-16T22:15:18.729Z,3.10
2019-04-16T22:17:49.442Z,5.20
2019-04-16T22:20:20.389Z,5.47
2019-04-16T22:22:51.421Z,4.30
2019-04-16T22:25:23.694Z,3.50
2019-04-16T22:27:54.615Z,4.70
2019-04-16T22:30:25.579Z,4.27
2019-04-16T22:32:57.097Z,4.37
2019-04-16T22:35:31.826Z,7.40
2019-04-16T22:38:02.341Z,3.37
2019-04-16T22:40:51.617Z,3.63
2019-04-16T22:43:32.769Z,3.57
2019-04-16T22:46:14.483Z,4.73
2019-04-16T22:49:00.536Z,3.60
2019-04-16T22:51:33.014Z,4.07
2019-04-16T22:54:05.096Z,3.13
2019-04-16T22:56:43.142Z,4.50
2019-04-16T22:59:13.418Z,3.73
2019-04-16T23:01:46.159Z,3.60
2019-04-16T23:04:17.293Z,4.53
2019-04-16T23:06:48.504Z,4.33
2019-04-16T23:09:19.895Z,3.80
2019-04-16T23:11:52.680Z,3.57
2019-04-16T23:14:22.025Z,5.10
2019-04-16T23:16:54.138Z,5.63
2019-04-16T23:19:24.878Z,4.67
2019-04-16T23:21:55.541Z,4.67
2019-04-16T23:24:26.265Z,4.43
2019-04-16T23:26:57.364Z,4.03
2019-04-16T23:29:28.013Z,3.97
2019-04-16T23:31:58.961Z,3.67
2019-04-16T23:34:28.743Z,5.47
2019-04-16T23:36:58.906Z,5.20
2019-04-16T23:39:29.846Z,4.37
2019-04-16T23:42:02.286Z,4.67
2019-04-16T23:44:38.077Z,4.77
2019-04-16T23:47:21.741Z,4.90
2019-04-16T23:50:00.280Z,5.53
2019-04-16T23:52:35.442Z,4.10
2019-04-16T23:55:07.718Z,5.77
2019-04-16T23:57:53.634Z,6.70
